SAZT/TDL METAR and TAF weather

Enter ICAO airport designator
Station Type Date Time Source
SAZT METAR 2018/12/14 18:46 UTC NOAA

SAZT 141846Z 27013G30KT 9999 BKN030 25/14 Q1006


Station Type Date Time Source
SAZT Decoded METAR 2018/12/14 18:46 UTC NOAA

Tandil Aerodrome, Argentina (SAZT) 37-14S 059-15W 175M
Dec 14, 2018 - 01:46 PM EST / 2018.12.14 1846 UTC
Wind: from the W (270 degrees) at 15 MPH (13 KT) gusting to 35 MPH (30 KT):0
Visibility: greater than 7 mile(s):0
Sky conditions: mostly cloudy
Temperature: 77 F (25 C)
Dew Point: 57 F (14 C)
Relative Humidity: 50%
Pressure (altimeter): 29.71 in. Hg (1006 hPa)
ob: SAZT 141846Z 27013G30KT 9999 BKN030 25/14 Q1006
cycle: 19

Station Type Date Time Source
SAZT TAF UTC NOAA

Error!


Example: see airport list